Terminal Aerodrome Forecast
Issued by NWS Jackson, KY

Home | Current Version | Previous Version | Text Only | Print | Product List | Glossary On
Versions: 1 2 3 4 5 6 7 8 9 10 11 12 13 14 15 16 17 18 19 20 21 22 23 24 25 26 27 28 29 30 31
000
FTUS43 KJKL 231300 AAA
TAFJKL
TAF AMD
KJKL 231311Z 2313/2412 00000KT 1/4SM FG VV003
     FM231400 00000KT 2SM BR SCT003 OVC007
     FM231430 00000KT 4SM BR SCT007 OVC015
     FM231500 VRB05KT P6SM FEW030 BKN100
     FM232100 30005KT P6SM VCTS BKN030CB BKN050
     FM240700 00000KT 4SM BR BKN250
     FM240900 00000KT 2SM BR OVC004=

USA.gov is the U.S. government's official web portal to all federal, state and local government web resources and services.